createdAt,value
2019-04-13T00:01:18.375Z,101367.98
2019-04-13T00:03:46.847Z,101375.05
2019-04-13T00:06:17.087Z,101371.48
2019-04-13T00:08:45.546Z,101367.35
2019-04-13T00:11:22.072Z,101370.34
2019-04-13T00:13:50.550Z,101367.48
2019-04-13T00:16:19.034Z,101363.70
2019-04-13T00:18:47.496Z,101365.40
2019-04-13T00:21:16.821Z,101358.30
2019-04-13T00:23:45.264Z,101363.38
2019-04-13T00:26:13.741Z,101362.18
2019-04-13T00:28:42.204Z,101361.77
2019-04-13T00:31:10.662Z,101359.66
2019-04-13T00:33:39.112Z,101355.05
2019-04-13T00:36:07.555Z,101363.09
2019-04-13T00:38:36.013Z,101357.23
2019-04-13T00:41:04.541Z,101351.39
2019-04-13T00:43:33.041Z,101349.31
2019-04-13T00:46:01.542Z,101354.07
2019-04-13T00:48:30.095Z,101354.07
2019-04-13T00:50:58.603Z,101354.22
2019-04-13T00:53:27.100Z,101346.16
2019-04-13T00:55:55.531Z,101347.56
2019-04-13T00:58:24.014Z,101344.95
2019-04-13T01:00:52.474Z,101339.00
2019-04-13T01:03:20.911Z,101346.66
2019-04-13T01:05:49.418Z,101339.41
2019-04-13T01:08:17.972Z,101340.67
2019-04-13T01:10:46.442Z,101341.61
2019-04-13T01:13:14.894Z,101339.00
2019-04-13T01:15:44.196Z,101340.00
2019-04-13T01:18:12.702Z,101342.08
2019-04-13T01:20:41.186Z,101342.23
2019-04-13T01:23:09.657Z,101340.30
2019-04-13T01:25:38.271Z,101341.94
2019-04-13T01:28:06.726Z,101343.94
2019-04-13T01:30:35.185Z,101341.47
2019-04-13T01:33:03.633Z,101339.01
2019-04-13T01:35:32.519Z,101334.95
2019-04-13T01:38:01.112Z,101339.65
2019-04-13T01:40:29.585Z,101338.73
2019-04-13T01:42:58.077Z,101330.73
2019-04-13T01:45:26.611Z,101334.86
2019-04-13T01:47:57.251Z,101331.11
2019-04-13T01:50:25.268Z,101332.28
2019-04-13T01:52:53.811Z,101326.47
2019-04-13T01:55:22.257Z,101331.87
2019-04-13T01:57:50.746Z,101325.91
2019-04-13T02:00:21.084Z,101324.65
2019-04-13T02:02:51.220Z,101323.39
2019-04-13T02:05:27.420Z,101316.29
2019-04-13T02:07:57.540Z,101317.43
2019-04-13T02:10:39.532Z,101315.17
2019-04-13T02:13:08.070Z,101311.30
2019-04-13T02:15:36.624Z,101313.34
2019-04-13T02:18:05.545Z,101315.95
2019-04-13T02:20:34.065Z,101311.30
2019-04-13T02:23:02.520Z,101308.21
2019-04-13T02:25:31.058Z,101305.78
2019-04-13T02:27:59.506Z,101310.03
2019-04-13T02:30:28.028Z,101309.91
2019-04-13T02:32:56.544Z,101307.39
2019-04-13T02:35:35.526Z,101306.12
2019-04-13T02:37:55.864Z,101306.59
2019-04-13T02:40:24.314Z,101314.17
2019-04-13T02:42:52.773Z,101310.32
2019-04-13T02:45:21.243Z,101301.34
2019-04-13T02:47:49.721Z,101308.44
2019-04-13T02:50:18.303Z,101308.09
2019-04-13T02:52:46.780Z,101304.66
2019-04-13T02:55:15.232Z,101306.41
2019-04-13T02:57:43.744Z,101309.34
2019-04-13T03:00:12.534Z,101308.91
2019-04-13T03:02:41.125Z,101307.08
2019-04-13T03:05:11.577Z,101313.07
2019-04-13T03:07:40.104Z,101303.87
2019-04-13T03:10:08.894Z,101311.08
2019-04-13T03:12:37.900Z,101308.91
2019-04-13T03:15:08.100Z,101300.46
2019-04-13T03:17:47.293Z,101299.73
2019-04-13T03:20:26.180Z,101300.59
2019-04-13T03:22:55.179Z,101298.76
2019-04-13T03:25:23.764Z,101299.17
2019-04-13T03:27:52.190Z,101300.46
2019-04-13T03:30:22.811Z,101301.34
2019-04-13T03:32:51.409Z,101302.25
2019-04-13T03:35:19.915Z,101298.34
2019-04-13T03:37:48.412Z,101301.69
2019-04-13T03:40:16.901Z,101302.61
2019-04-13T03:42:45.358Z,101300.43
2019-04-13T03:45:14.226Z,101301.94
2019-04-13T03:47:42.726Z,101298.21
2019-04-13T03:50:11.409Z,101303.87
2019-04-13T03:52:39.892Z,101299.33
2019-04-13T03:55:08.426Z,101304.02
2019-04-13T03:57:36.904Z,101298.00
2019-04-13T04:00:07.369Z,101301.84
2019-04-13T04:02:36.203Z,101299.61
2019-04-13T04:05:07.341Z,101305.13
2019-04-13T04:07:35.843Z,101298.91
2019-04-13T04:10:06.433Z,101296.80
2019-04-13T04:12:34.891Z,101287.13
2019-04-13T04:15:04.411Z,101292.95
2019-04-13T04:17:32.913Z,101293.30
2019-04-13T04:20:01.344Z,101288.61
2019-04-13T04:22:29.872Z,101300.93
2019-04-13T04:24:58.393Z,101300.11
2019-04-13T04:27:26.909Z,101301.34
2019-04-13T04:29:55.354Z,101298.55
2019-04-13T04:32:24.450Z,101298.80
2019-04-13T04:34:52.894Z,101301.43
2019-04-13T04:37:21.361Z,101300.64
2019-04-13T04:39:49.859Z,101301.43
2019-04-13T04:42:18.328Z,101299.74
2019-04-13T04:44:46.770Z,101306.05
2019-04-13T04:47:15.249Z,101302.58
2019-04-13T04:49:43.714Z,101305.80
2019-04-13T04:52:12.194Z,101305.04
2019-04-13T04:54:40.685Z,101311.34
2019-04-13T04:57:10.046Z,101306.78
2019-04-13T04:59:38.483Z,101304.03
2019-04-13T05:02:07.059Z,101301.17
2019-04-13T05:04:35.576Z,101297.29
2019-04-13T05:07:04.109Z,101301.58
2019-04-13T05:09:33.321Z,101306.80
2019-04-13T05:12:01.775Z,101298.48
2019-04-13T05:14:30.213Z,101294.11
2019-04-13T05:16:58.759Z,101300.44
2019-04-13T05:19:27.189Z,101302.17
2019-04-13T05:21:55.675Z,101302.52
2019-04-13T05:24:24.117Z,101299.59
2019-04-13T05:26:52.541Z,101300.41
2019-04-13T05:29:21.034Z,101297.48
2019-04-13T05:31:49.764Z,101302.20
2019-04-13T05:34:18.200Z,101299.59
2019-04-13T05:36:47.964Z,101304.98
2019-04-13T05:39:17.108Z,101308.76
2019-04-13T05:41:45.612Z,101311.34
2019-04-13T05:44:14.097Z,101306.23
2019-04-13T05:46:42.829Z,101307.16
2019-04-13T05:49:11.412Z,101305.64
2019-04-13T05:51:39.894Z,101313.61
2019-04-13T05:54:08.434Z,101307.59
2019-04-13T05:56:36.924Z,101310.52
2019-04-13T05:59:05.403Z,101312.25
2019-04-13T06:01:34.208Z,101319.13
2019-04-13T06:04:05.557Z,101315.28
2019-04-13T06:06:33.495Z,101313.77
2019-04-13T06:09:02.113Z,101313.48
2019-04-13T06:11:35.167Z,101313.14
2019-04-13T06:14:02.401Z,101310.08
2019-04-13T06:16:30.904Z,101321.71
2019-04-13T06:18:59.437Z,101317.87
2019-04-13T06:21:28.050Z,101317.61
2019-04-13T06:23:56.526Z,101316.85
2019-04-13T06:26:25.114Z,101321.30
2019-04-13T06:28:53.589Z,101321.89
2019-04-13T06:31:40.040Z,101328.39
2019-04-13T06:34:11.965Z,101322.52
2019-04-13T06:36:41.832Z,101319.80
2019-04-13T06:39:12.224Z,101329.17
2019-04-13T06:41:43.793Z,101329.11
2019-04-13T06:44:11.103Z,101330.09
2019-04-13T06:46:42.626Z,101332.67
2019-04-13T06:49:11.086Z,101322.93
2019-04-13T06:51:39.688Z,101329.23
2019-04-13T06:54:09.728Z,101328.04
2019-04-13T06:56:38.813Z,101334.18
2019-04-13T06:59:07.265Z,101330.59
2019-04-13T07:01:35.734Z,101323.78
2019-04-13T07:04:04.531Z,101327.84
2019-04-13T07:06:33.294Z,101328.77
2019-04-13T07:09:06.722Z,101333.61
2019-04-13T07:11:45.019Z,101338.09
2019-04-13T07:14:15.181Z,101327.02
2019-04-13T07:16:48.157Z,101323.86
2019-04-13T07:19:17.025Z,101331.98
2019-04-13T07:21:45.486Z,101338.09
2019-04-13T07:24:13.981Z,101335.65
2019-04-13T07:26:42.548Z,101336.69
2019-04-13T07:29:11.004Z,101332.48
2019-04-13T07:31:39.506Z,101326.19
2019-04-13T07:34:08.203Z,101336.52
2019-04-13T07:36:36.690Z,101335.37
2019-04-13T07:39:06.816Z,101333.41
2019-04-13T07:41:35.324Z,101339.16
2019-04-13T07:44:06.077Z,101337.25
2019-04-13T07:46:39.027Z,101335.58
2019-04-13T07:49:09.120Z,101337.63
2019-04-13T07:51:51.390Z,101335.66
2019-04-13T07:54:18.589Z,101344.09
2019-04-13T07:56:47.060Z,101341.83
2019-04-13T07:59:19.179Z,101332.20
2019-04-13T08:01:56.553Z,101339.59
2019-04-13T08:04:18.357Z,101345.55
2019-04-13T08:06:46.926Z,101346.58
2019-04-13T08:09:15.366Z,101344.20
2019-04-13T08:11:43.845Z,101346.86
2019-04-13T08:14:13.964Z,101347.14
2019-04-13T08:16:42.570Z,101342.11
2019-04-13T08:19:13.313Z,101344.25
2019-04-13T08:21:45.360Z,101345.73
2019-04-13T08:24:13.872Z,101342.34
2019-04-13T08:26:43.160Z,101345.61
2019-04-13T08:29:11.943Z,101343.24
2019-04-13T08:31:41.410Z,101338.52
2019-04-13T08:34:10.245Z,101343.09
2019-04-13T08:36:38.689Z,101344.02
2019-04-13T08:39:10.790Z,101341.95
2019-04-13T08:41:38.104Z,101342.44
2019-04-13T08:44:07.005Z,101345.80
2019-04-13T08:46:35.612Z,101344.92
2019-04-13T08:49:04.055Z,101345.46
2019-04-13T08:51:32.660Z,101348.89
2019-04-13T08:54:01.217Z,101346.13
2019-04-13T08:56:32.190Z,101344.97
2019-04-13T08:59:02.099Z,101346.83
2019-04-13T09:01:30.911Z,101341.66
2019-04-13T09:03:59.406Z,101345.57
2019-04-13T09:06:27.868Z,101348.23
2019-04-13T09:08:56.404Z,101339.91
2019-04-13T09:11:24.833Z,101350.67
2019-04-13T09:13:53.304Z,101341.88
2019-04-13T09:16:26.451Z,101343.13
2019-04-13T09:18:54.005Z,101332.41
2019-04-13T09:21:43.975Z,101338.75
2019-04-13T09:24:09.291Z,101335.96
2019-04-13T09:26:37.760Z,101338.97
2019-04-13T09:29:06.299Z,101337.58
2019-04-13T09:31:34.819Z,101336.49
2019-04-13T09:34:03.409Z,101339.82
2019-04-13T09:36:31.839Z,101326.34
2019-04-13T09:39:00.993Z,101328.72
2019-04-13T09:41:29.419Z,101328.03
2019-04-13T09:44:17.465Z,101334.01
2019-04-13T09:46:46.592Z,101326.08
2019-04-13T09:49:19.539Z,101326.31
2019-04-13T09:51:47.228Z,101323.36
2019-04-13T09:54:16.054Z,101324.28
2019-04-13T09:56:44.523Z,101318.64
2019-04-13T09:59:12.974Z,101313.40
2019-04-13T10:01:45.256Z,101308.06
2019-04-13T10:04:12.919Z,101306.82
2019-04-13T10:06:45.767Z,101315.20
2019-04-13T10:09:14.321Z,101308.18
2019-04-13T10:11:47.128Z,101306.02
2019-04-13T10:14:23.272Z,101310.59
2019-04-13T10:16:53.689Z,101300.83
2019-04-13T10:19:22.492Z,101306.27
2019-04-13T10:21:52.784Z,101305.22
2019-04-13T10:24:22.886Z,101296.88
2019-04-13T10:26:51.365Z,101299.00
2019-04-13T10:29:22.668Z,101303.23
2019-04-13T10:31:50.213Z,101295.77
2019-04-13T10:34:18.778Z,101308.95
2019-04-13T10:36:47.230Z,101299.66
2019-04-13T10:39:15.876Z,101299.36
2019-04-13T10:41:44.519Z,101292.09
2019-04-13T10:44:13.169Z,101286.58
2019-04-13T10:46:43.331Z,101283.27
2019-04-13T10:49:19.437Z,101281.45
2019-04-13T10:51:53.550Z,101276.80
2019-04-13T10:54:22.123Z,101280.16
2019-04-13T10:56:50.645Z,101269.08
2019-04-13T10:59:19.104Z,101267.75
2019-04-13T11:01:50.321Z,101267.67
2019-04-13T11:04:18.762Z,101263.64
2019-04-13T11:06:47.323Z,101267.91
2019-04-13T11:09:21.643Z,101263.55
2019-04-13T11:11:47.695Z,101264.27
2019-04-13T11:14:16.207Z,101261.59
2019-04-13T11:16:44.764Z,101257.12
2019-04-13T11:19:13.398Z,101256.48
2019-04-13T11:21:41.943Z,101260.08
2019-04-13T11:24:10.632Z,101254.33
2019-04-13T11:26:39.231Z,101245.59
2019-04-13T11:29:10.778Z,101260.36
2019-04-13T11:31:38.034Z,101263.26
2019-04-13T11:34:06.643Z,101262.13
2019-04-13T11:36:35.231Z,101256.02
2019-04-13T11:39:05.768Z,101264.87
2019-04-13T11:41:52.019Z,101252.14
2019-04-13T11:44:22.178Z,101255.09
2019-04-13T11:47:04.386Z,101253.80
2019-04-13T11:49:33.618Z,101254.16
2019-04-13T11:52:02.080Z,101253.44
2019-04-13T11:54:32.829Z,101258.28
2019-04-13T11:57:01.293Z,101268.23
2019-04-13T11:59:29.868Z,101253.80
2019-04-13T12:01:59.967Z,101261.31
2019-04-13T12:04:46.108Z,101251.33
2019-04-13T12:07:27.986Z,101249.64
2019-04-13T12:10:03.200Z,101255.81
2019-04-13T12:12:48.339Z,101252.98
2019-04-13T12:15:38.420Z,101255.53
2019-04-13T12:18:20.006Z,101246.49
2019-04-13T12:20:51.141Z,101248.23
2019-04-13T12:23:19.589Z,101240.78
2019-04-13T12:25:48.306Z,101245.16
2019-04-13T12:28:16.780Z,101235.25
2019-04-13T12:30:46.388Z,101226.50
2019-04-13T12:33:17.152Z,101219.75
2019-04-13T12:35:45.181Z,101226.00
2019-04-13T12:38:13.658Z,101235.28
2019-04-13T12:40:50.019Z,101225.66
2019-04-13T12:43:20.312Z,101236.27
2019-04-13T12:45:48.867Z,101226.92
2019-04-13T12:48:18.761Z,101226.78
2019-04-13T12:50:47.505Z,101235.86
2019-04-13T12:53:15.909Z,101230.86
2019-04-13T12:55:44.535Z,101234.50
2019-04-13T12:58:13.036Z,101230.98
2019-04-13T13:00:59.427Z,101218.34
2019-04-13T13:03:28.228Z,101230.98
2019-04-13T13:05:57.364Z,101237.83
2019-04-13T13:08:26.196Z,101230.56
2019-04-13T13:10:55.248Z,101230.08
2019-04-13T13:13:23.768Z,101232.63
2019-04-13T13:15:52.258Z,101233.92
2019-04-13T13:18:20.806Z,101239.48
2019-04-13T13:20:49.576Z,101227.47
2019-04-13T13:23:18.555Z,101224.24
2019-04-13T13:25:48.616Z,101234.53
2019-04-13T13:28:17.258Z,101235.77
2019-04-13T13:30:45.734Z,101235.34
2019-04-13T13:33:14.237Z,101224.30
2019-04-13T13:35:42.678Z,101221.19
2019-04-13T13:38:11.143Z,101220.56
2019-04-13T13:40:39.672Z,101225.12
2019-04-13T13:43:08.183Z,101222.66
2019-04-13T13:45:36.633Z,101222.34
2019-04-13T13:48:05.391Z,101218.59
2019-04-13T13:50:34.111Z,101213.16
2019-04-13T13:53:02.630Z,101215.97
2019-04-13T13:55:31.625Z,101218.54
2019-04-13T13:58:07.428Z,101207.96
2019-04-13T14:00:36.765Z,101205.94
2019-04-13T14:03:10.174Z,101213.55
2019-04-13T14:05:39.095Z,101202.19
2019-04-13T14:08:10.505Z,101201.29
2019-04-13T14:10:43.046Z,101200.19
2019-04-13T14:13:09.887Z,101197.62
2019-04-13T14:15:40.717Z,101196.87
2019-04-13T14:18:08.770Z,101198.44
2019-04-13T14:20:37.519Z,101188.92
2019-04-13T14:23:05.970Z,101192.95
2019-04-13T14:25:34.422Z,101190.44
2019-04-13T14:28:02.857Z,101189.16
2019-04-13T14:30:31.436Z,101181.59
2019-04-13T14:32:59.883Z,101183.31
2019-04-13T14:35:28.324Z,101180.59
2019-04-13T14:37:57.155Z,101185.61
2019-04-13T14:40:25.626Z,101190.29
2019-04-13T14:42:54.081Z,101178.84
2019-04-13T14:45:27.092Z,101181.06
2019-04-13T14:47:52.719Z,101186.15
2019-04-13T14:50:21.145Z,101184.21
2019-04-13T14:52:49.580Z,101179.22
2019-04-13T14:55:18.042Z,101180.57
2019-04-13T14:57:47.913Z,101179.86
2019-04-13T15:00:16.768Z,101181.13
2019-04-13T15:02:45.277Z,101174.63
2019-04-13T15:05:15.352Z,101181.61
2019-04-13T15:07:44.200Z,101172.80
2019-04-13T15:10:12.834Z,101170.20
2019-04-13T15:12:41.296Z,101176.58
2019-04-13T15:15:11.371Z,101175.07
2019-04-13T15:17:53.933Z,101172.45
2019-04-13T15:20:26.665Z,101175.39
2019-04-13T15:22:55.014Z,101174.20
2019-04-13T15:25:22.799Z,101172.73
2019-04-13T15:27:56.229Z,101181.34
2019-04-13T15:30:22.637Z,101173.69
2019-04-13T15:32:52.356Z,101175.95
2019-04-13T15:35:21.897Z,101169.48
2019-04-13T15:37:51.534Z,101171.17
2019-04-13T15:40:23.700Z,101175.86
2019-04-13T15:42:59.736Z,101173.48
2019-04-13T15:45:21.120Z,101176.58
2019-04-13T15:47:49.615Z,101176.00
2019-04-13T15:50:19.514Z,101169.41
2019-04-13T15:52:48.995Z,101168.08
2019-04-13T15:55:18.722Z,101169.70
2019-04-13T15:57:47.533Z,101172.90
2019-04-13T16:00:16.958Z,101174.03
2019-04-13T16:02:45.722Z,101177.92
2019-04-13T16:05:14.501Z,101184.73
2019-04-13T16:07:43.018Z,101195.75
2019-04-13T16:10:19.019Z,101187.65
2019-04-13T16:12:55.688Z,101189.66
2019-04-13T16:15:27.106Z,101184.30
2019-04-13T16:17:56.095Z,101181.27
2019-04-13T16:20:25.187Z,101179.83
2019-04-13T16:22:54.212Z,101185.47
2019-04-13T16:25:22.808Z,101183.34
2019-04-13T16:27:56.070Z,101194.36
2019-04-13T16:30:43.440Z,101194.71
2019-04-13T16:33:30.519Z,101198.78
2019-04-13T16:36:01.935Z,101199.47
2019-04-13T16:38:30.629Z,101207.19
2019-04-13T16:41:01.772Z,101195.80
2019-04-13T16:43:38.802Z,101194.64
2019-04-13T16:46:24.345Z,101186.42
2019-04-13T16:49:08.660Z,101188.67
2019-04-13T16:51:41.397Z,101184.34
2019-04-13T16:54:21.213Z,101188.86
2019-04-13T16:56:54.399Z,101187.13
2019-04-13T16:59:40.914Z,101192.27
2019-04-13T17:02:11.136Z,101194.84
2019-04-13T17:04:42.268Z,101196.69
2019-04-13T17:07:11.157Z,101205.14
2019-04-13T17:09:39.966Z,101197.88
2019-04-13T17:12:19.067Z,101203.37
2019-04-13T17:14:39.241Z,101199.08
2019-04-13T17:17:07.866Z,101200.88
2019-04-13T17:19:41.369Z,101210.89
2019-04-13T17:22:11.498Z,101216.92
2019-04-13T17:24:57.593Z,101203.99
2019-04-13T17:27:33.680Z,101208.17
2019-04-13T17:30:06.744Z,101203.79
2019-04-13T17:32:37.255Z,101204.55
2019-04-13T17:35:15.605Z,101207.33
2019-04-13T17:37:44.559Z,101208.18
2019-04-13T17:40:15.408Z,101214.39
2019-04-13T17:42:51.666Z,101213.48
2019-04-13T17:45:31.879Z,101205.89
2019-04-13T17:48:18.793Z,101210.91
2019-04-13T17:50:58.221Z,101211.80
2019-04-13T17:53:34.509Z,101213.88
2019-04-13T17:56:13.277Z,101211.47
2019-04-13T17:58:46.668Z,101214.59
2019-04-13T18:01:16.871Z,101207.00
2019-04-13T18:04:04.651Z,101210.84
2019-04-13T18:06:50.904Z,101208.64
2019-04-13T18:09:21.124Z,101212.45
2019-04-13T18:12:03.524Z,101217.09
2019-04-13T18:14:46.658Z,101215.78
2019-04-13T18:17:20.179Z,101214.98
2019-04-13T18:19:49.049Z,101219.67
2019-04-13T18:22:18.594Z,101219.34
2019-04-13T18:24:47.359Z,101232.98
2019-04-13T18:27:17.299Z,101228.38
2019-04-13T18:29:58.241Z,101233.95
2019-04-13T18:32:17.252Z,101231.00
2019-04-13T18:34:47.258Z,101237.77
2019-04-13T18:37:16.213Z,101234.42
2019-04-13T18:39:44.651Z,101236.08
2019-04-13T18:42:13.476Z,101243.72
2019-04-13T18:44:42.895Z,101237.77
2019-04-13T18:47:12.621Z,101239.03
2019-04-13T18:49:41.294Z,101245.75
2019-04-13T18:52:09.805Z,101244.48
2019-04-13T18:54:38.644Z,101248.66
2019-04-13T18:57:07.372Z,101243.63
2019-04-13T18:59:35.850Z,101249.46
2019-04-13T19:02:04.449Z,101256.69
2019-04-13T19:04:32.903Z,101256.27
2019-04-13T19:07:01.469Z,101259.19
2019-04-13T19:09:29.954Z,101253.23
2019-04-13T19:11:58.431Z,101255.38
2019-04-13T19:14:26.888Z,101258.30
2019-04-13T19:16:55.349Z,101258.76
2019-04-13T19:19:23.849Z,101264.26
2019-04-13T19:21:52.503Z,101260.45
2019-04-13T19:24:20.945Z,101261.34
2019-04-13T19:26:49.559Z,101262.10
2019-04-13T19:29:18.041Z,101262.48
2019-04-13T19:31:46.495Z,101264.20
2019-04-13T19:34:15.012Z,101264.97
2019-04-13T19:36:43.563Z,101262.43
2019-04-13T19:39:12.019Z,101264.92
2019-04-13T19:41:40.552Z,101263.27
2019-04-13T19:44:09.036Z,101259.00
2019-04-13T19:46:37.510Z,101263.56
2019-04-13T19:49:06.089Z,101263.52
2019-04-13T19:51:53.887Z,101261.36
2019-04-13T19:54:22.580Z,101265.45
2019-04-13T19:56:51.054Z,101271.88
2019-04-13T19:59:19.502Z,101269.72
2019-04-13T20:01:48.105Z,101273.42
2019-04-13T20:04:16.580Z,101269.91
2019-04-13T20:06:45.076Z,101269.53
2019-04-13T20:09:13.548Z,101273.09
2019-04-13T20:11:42.024Z,101268.73
2019-04-13T20:14:14.038Z,101269.15
2019-04-13T20:16:40.702Z,101272.44
2019-04-13T20:19:09.200Z,101271.12
2019-04-13T20:21:37.601Z,101271.39
2019-04-13T20:24:06.128Z,101271.77
2019-04-13T20:26:34.647Z,101276.78
2019-04-13T20:29:03.579Z,101273.25
2019-04-13T20:31:33.244Z,101270.68
2019-04-13T20:34:01.712Z,101279.81
2019-04-13T20:36:31.176Z,101274.42
2019-04-13T20:39:00.560Z,101274.00
2019-04-13T20:41:44.787Z,101279.27
2019-04-13T20:44:06.272Z,101276.22
2019-04-13T20:46:30.089Z,101281.55
2019-04-13T20:48:59.760Z,101285.36
2019-04-13T20:51:28.501Z,101279.34
2019-04-13T20:53:57.019Z,101284.33
2019-04-13T20:56:25.522Z,101283.44
2019-04-13T20:58:55.347Z,101282.91
2019-04-13T21:01:24.071Z,101284.87
2019-04-13T21:03:53.431Z,101276.75
2019-04-13T21:06:21.992Z,101281.00
2019-04-13T21:08:53.091Z,101277.83
2019-04-13T21:11:20.776Z,101275.73
2019-04-13T21:14:01.622Z,101280.22
2019-04-13T21:16:19.511Z,101276.42
2019-04-13T21:18:49.246Z,101281.78
2019-04-13T21:21:19.177Z,101284.27
2019-04-13T21:23:48.009Z,101288.52
2019-04-13T21:26:17.432Z,101285.45
2019-04-13T21:28:47.115Z,101282.83
2019-04-13T21:31:17.035Z,101283.20
2019-04-13T21:33:45.902Z,101278.07
2019-04-13T21:36:15.284Z,101279.75
2019-04-13T21:38:45.149Z,101280.00
2019-04-13T21:41:14.988Z,101281.98
2019-04-13T21:43:43.619Z,101278.92
2019-04-13T21:46:12.990Z,101275.20
2019-04-13T21:48:41.647Z,101275.91
2019-04-13T21:51:18.376Z,101266.59
2019-04-13T21:53:48.672Z,101277.13
2019-04-13T21:56:17.252Z,101276.16
2019-04-13T21:58:46.878Z,101273.88
2019-04-13T22:01:35.016Z,101272.98
2019-04-13T22:04:06.530Z,101275.80
2019-04-13T22:06:35.468Z,101268.47
2019-04-13T22:09:06.882Z,101279.77
2019-04-13T22:11:36.549Z,101277.07
2019-04-13T22:14:07.811Z,101278.20
2019-04-13T22:16:36.085Z,101271.40
2019-04-13T22:19:05.022Z,101273.80
2019-04-13T22:21:34.978Z,101278.25
2019-04-13T22:24:03.458Z,101266.75
2019-04-13T22:26:32.600Z,101276.80
2019-04-13T22:29:05.508Z,101274.50
2019-04-13T22:31:52.677Z,101282.00
2019-04-13T22:34:41.020Z,101278.93
2019-04-13T22:37:10.447Z,101282.97
2019-04-13T22:39:40.082Z,101279.95
2019-04-13T22:42:10.032Z,101285.82
2019-04-13T22:44:48.894Z,101278.84
2019-04-13T22:47:08.948Z,101284.23
2019-04-13T22:49:47.987Z,101288.86
2019-04-13T22:52:34.547Z,101285.88
2019-04-13T22:55:12.195Z,101279.00
2019-04-13T22:57:45.754Z,101284.82
2019-04-13T23:00:19.434Z,101294.07
2019-04-13T23:02:49.876Z,101284.74
2019-04-13T23:05:18.392Z,101285.03
2019-04-13T23:07:47.859Z,101290.55
2019-04-13T23:10:18.068Z,101283.69
2019-04-13T23:12:47.013Z,101279.02
2019-04-13T23:15:24.359Z,101282.25
2019-04-13T23:17:46.925Z,101276.85
2019-04-13T23:20:15.440Z,101283.02
2019-04-13T23:22:43.910Z,101276.69
2019-04-13T23:25:13.699Z,101284.20
2019-04-13T23:27:42.131Z,101288.42
2019-04-13T23:30:11.701Z,101283.00
2019-04-13T23:32:40.240Z,101276.57
2019-04-13T23:35:08.963Z,101285.34
2019-04-13T23:37:37.418Z,101289.24
2019-04-13T23:40:07.227Z,101284.98
2019-04-13T23:42:35.805Z,101295.26
2019-04-13T23:45:15.543Z,101286.92
2019-04-13T23:47:38.334Z,101292.00
2019-04-13T23:50:09.004Z,101294.14
2019-04-13T23:52:37.816Z,101297.45
2019-04-13T23:55:07.685Z,101296.69
2019-04-13T23:57:55.435Z,101293.38
